Aviation Digital Data Service (ADDS)

Output produced by METARs form (1202 UTC 24 February 2018)
found at http://www.aviationweather.gov/adds/metars/
 
KYIP 241121Z 2412/2512 01006KT P6SM OVC015 
     FM241500 07008KT P6SM OVC022 
     FM242300 09010KT P6SM OVC012 
     FM250200 11015KT 2SM -RA OVC009
       
KYKM 241120Z 2412/2512 27007KT P6SM -SHSN OVC040 
     FM241700 30014G22KT P6SM BKN050
       
KYNG 241159Z 2412/2512 02008KT P6SM -RA SCT009 OVC012 
     TEMPO 2412/2415 4SM -RA OVC009 
     FM241900 09008KT P6SM VCSH OVC015 
     FM250600 15012G22KT 2SM -RA BR OVC003 
     FM251100 18012G24KT 5SM -RA BKN010 OVC025